Time;durP1;ratioP1;P1;durP2;ratioP2;P2;SDS_P1;SDS_P2;PMS_P1;PMS_P2;Temp;Humidity;BMP_temperature;BMP_pressure;BME280_temperature;BME280_humidity;BME280_pressure;Samples;Min_cycle;Max_cycle;Signal;HPM_P1;HPM_P2
2023/05/09 00:01:14;;;;;;;15.75;12.18;;;;;;;13.02;100.00;98486.91;5053280;28;20247;-61
2023/05/09 00:03:41;;;;;;;13.90;11.27;;;;;;;13.34;100.00;98558.81;5053378;28;20223;-61
2023/05/09 00:06:07;;;;;;;15.02;11.50;;;;;;;13.19;100.00;98526.22;5053219;28;20190;-61
2023/05/09 00:08:32;;;;;;;12.93;11.73;;;;;;;13.20;100.00;98546.06;5053132;28;20638;-61
2023/05/09 00:10:58;;;;;;;14.07;12.20;;;;;;;13.37;100.00;98552.56;5053407;28;20182;-61
2023/05/09 00:13:24;;;;;;;13.43;11.75;;;;;;;13.23;100.00;98532.00;5053077;28;20185;-61
2023/05/09 00:15:52;;;;;;;13.05;11.57;;;;;;;13.01;100.00;98491.25;5052998;28;20182;-61
2023/05/09 00:18:21;;;;;;;13.18;11.75;;;;;;;12.94;100.00;98489.22;5052957;28;20272;-61
2023/05/09 00:20:47;;;;;;;12.48;10.93;;;;;;;13.30;100.00;98539.19;5052912;28;20178;-61
2023/05/09 00:23:12;;;;;;;12.43;11.05;;;;;;;13.13;100.00;98492.09;5052938;28;20182;-61
2023/05/09 00:25:38;;;;;;;13.63;10.65;;;;;;;13.47;100.00;98548.31;5052844;28;20192;-61
2023/05/09 00:28:03;;;;;;;12.65;11.45;;;;;;;13.35;100.00;98524.09;5054490;28;20331;-61
2023/05/09 00:30:30;;;;;;;12.85;11.55;;;;;;;13.23;100.00;98524.19;5055185;28;20209;-61
2023/05/09 00:32:55;;;;;;;11.40;10.40;;;;;;;13.62;100.00;98571.34;5054816;28;20567;-61
2023/05/09 00:35:21;;;;;;;11.63;9.88;;;;;;;13.53;100.00;98542.63;5055131;28;20256;-61
2023/05/09 00:37:46;;;;;;;11.30;10.30;;;;;;;13.45;100.00;98537.19;5055040;28;20201;-62
2023/05/09 00:40:12;;;;;;;9.77;8.90;;;;;;;13.52;100.00;98551.34;5055019;28;20177;-61
2023/05/09 00:42:38;;;;;;;10.15;9.25;;;;;;;13.06;100.00;98485.72;5054908;28;20178;-62
2023/05/09 00:45:04;;;;;;;8.98;8.13;;;;;;;13.07;100.00;98482.19;5054898;28;20178;-61
2023/05/09 00:47:29;;;;;;;9.75;8.85;;;;;;;13.20;100.00;98506.25;5054733;28;20676;-61
2023/05/09 00:49:56;;;;;;;8.88;7.68;;;;;;;13.38;100.00;98573.25;5054831;28;20174;-61
2023/05/09 00:52:24;;;;;;;9.90;8.80;;;;;;;12.77;100.00;98507.88;5072182;28;20862;-61
2023/05/09 00:54:51;;;;;;;9.25;8.45;;;;;;;13.20;100.00;98579.00;5072252;28;20186;-61
2023/05/09 00:57:16;;;;;;;9.90;8.90;;;;;;;13.04;100.00;98568.13;5072215;28;20611;-61
2023/05/09 00:59:42;;;;;;;10.02;9.02;;;;;;;12.80;100.00;98513.66;5071794;28;20200;-61
2023/05/09 01:02:07;;;;;;;9.43;8.52;;;;;;;12.73;100.00;98488.28;5072151;28;20251;-61
2023/05/09 01:04:33;;;;;;;9.65;8.65;;;;;;;12.93;100.00;98547.28;5072128;28;20655;-61
2023/05/09 01:07:00;;;;;;;9.52;8.70;;;;;;;13.05;100.00;98572.38;5071988;28;20181;-61
2023/05/09 01:09:48;;;;;;;10.13;9.13;;;;;;;13.04;100.00;98573.31;5072005;28;20191;-61
2023/05/09 01:12:33;;;;;;;10.88;9.77;;;;;;;12.72;100.00;98515.19;5071976;28;20682;-61
2023/05/09 01:15:07;;;;;;;11.43;10.40;;;;;;;12.49;100.00;98490.13;5072034;28;20203;-61
2023/05/09 01:17:35;;;;;;;11.85;10.75;;;;;;;13.03;100.00;98576.88;5071921;28;20675;-61
2023/05/09 01:20:32;;;;;;;11.10;9.98;;;;;;;13.05;100.00;98586.19;5071863;28;20181;-61
2023/05/09 01:23:37;;;;;;;11.32;10.20;;;;;;;13.03;100.00;98589.84;5065592;28;20186;-61
2023/05/09 01:26:16;;;;;;;11.60;10.50;;;;;;;13.06;100.00;98587.03;5054457;28;20180;-61
2023/05/09 01:29:28;;;;;;;11.02;10.02;;;;;;;12.80;100.00;98544.81;5054074;28;20201;-61
2023/05/09 01:31:55;;;;;;;12.23;10.90;;;;;;;13.02;100.00;98581.22;5054135;28;20182;-61
2023/05/09 01:34:25;;;;;;;12.00;10.90;;;;;;;12.96;100.00;98568.69;5053979;28;20657;-61
2023/05/09 01:36:54;;;;;;;11.35;10.15;;;;;;;13.01;100.00;98565.78;5053870;28;20659;-61
2023/05/09 01:39:23;;;;;;;11.60;10.40;;;;;;;13.02;100.00;98580.41;5053859;28;20185;-61
2023/05/09 01:41:52;;;;;;;14.57;11.65;;;;;;;12.78;100.00;98561.44;5054082;28;20663;-61
2023/05/09 01:44:17;;;;;;;13.00;10.65;;;;;;;12.52;100.00;98523.63;5053789;28;20219;-61
2023/05/09 01:46:44;;;;;;;11.75;10.65;;;;;;;12.41;100.00;98500.22;5053699;28;20264;-61
2023/05/09 01:49:10;;;;;;;13.57;10.93;;;;;;;12.78;100.00;98559.66;5053425;28;20177;-61
2023/05/09 01:51:37;;;;;;;11.77;10.65;;;;;;;12.55;100.00;98508.63;5053641;28;20178;-61
2023/05/09 01:54:04;;;;;;;17.50;11.50;;;;;;;12.68;100.00;98513.75;5053596;28;20227;-61
2023/05/09 01:56:31;;;;;;;13.60;11.60;;;;;;;12.70;100.00;98512.69;5053579;28;20696;-61
2023/05/09 01:58:57;;;;;;;13.70;11.82;;;;;;;12.64;100.00;98514.91;5053193;28;20186;-61
2023/05/09 02:01:23;;;;;;;11.55;10.45;;;;;;;12.90;100.00;98544.94;5053483;28;20181;-61
2023/05/09 02:03:53;;;;;;;12.10;10.65;;;;;;;13.28;100.00;98597.44;5053421;28;20704;-61
2023/05/09 02:06:22;;;;;;;12.13;10.00;;;;;;;13.31;100.00;98592.00;5053695;28;20242;-61
2023/05/09 02:08:48;;;;;;;12.68;10.82;;;;;;;12.97;100.00;98515.00;5053259;28;20255;-61
2023/05/09 02:11:14;;;;;;;11.30;10.30;;;;;;;13.39;100.00;98594.84;5052537;28;20640;-61
2023/05/09 02:13:39;;;;;;;11.57;10.48;;;;;;;13.14;100.00;98566.50;5053284;28;20232;-61
2023/05/09 02:16:06;;;;;;;10.43;9.43;;;;;;;13.42;100.00;98602.41;5053217;28;20212;-61
2023/05/09 02:18:33;;;;;;;10.07;9.07;;;;;;;13.24;100.00;98580.44;5053194;28;20177;-61
2023/05/09 02:20:59;;;;;;;10.40;8.80;;;;;;;13.42;100.00;98612.81;5053115;28;20178;-61
2023/05/09 02:23:24;;;;;;;8.30;7.50;;;;;;;13.18;100.00;98596.50;5053056;28;20182;-61
2023/05/09 02:25:53;;;;;;;7.97;6.75;;;;;;;13.12;100.00;98581.38;5052962;28;20224;-61
2023/05/09 02:28:19;;;;;;;8.60;7.63;;;;;;;12.68;100.00;98537.94;5052869;28;20193;-61
2023/05/09 02:30:47;;;;;;;7.97;7.28;;;;;;;12.62;100.00;98529.78;5053175;28;20182;-62
2023/05/09 02:33:13;;;;;;;9.00;8.10;;;;;;;13.11;100.00;98606.53;5052869;28;20170;-62
2023/05/09 02:35:41;;;;;;;8.23;7.43;;;;;;;12.63;100.00;98547.00;5052812;28;20227;-62
2023/05/09 02:38:07;;;;;;;9.65;8.45;;;;;;;12.45;100.00;98533.66;5052761;28;20544;-62
2023/05/09 02:40:32;;;;;;;10.20;9.20;;;;;;;12.81;100.00;98608.78;5052715;28;20181;-62
2023/05/09 02:42:58;;;;;;;9.23;8.35;;;;;;;12.70;100.00;98602.72;5052706;28;20706;-62
2023/05/09 02:45:24;;;;;;;10.35;8.95;;;;;;;12.30;100.00;98533.91;5052652;28;20177;-61
2023/05/09 02:47:49;;;;;;;10.63;9.52;;;;;;;12.58;100.00;98567.28;5052552;28;20284;-62
2023/05/09 02:50:14;;;;;;;10.30;9.30;;;;;;;12.65;100.00;98571.09;5052541;28;20184;-62
2023/05/09 02:52:40;;;;;;;10.18;9.07;;;;;;;12.62;100.00;98560.94;5052479;28;20774;-62
2023/05/09 02:55:06;;;;;;;11.05;9.60;;;;;;;12.60;100.00;98570.63;5052709;28;20268;-62
2023/05/09 02:57:32;;;;;;;11.05;9.95;;;;;;;12.62;100.00;98572.16;5052366;28;20181;-62
2023/05/09 02:59:57;;;;;;;10.63;9.57;;;;;;;12.79;100.00;98600.28;5052534;28;20228;-62
2023/05/09 03:02:23;;;;;;;10.60;9.50;;;;;;;12.90;100.00;98622.84;5052361;28;20560;-62
2023/05/09 03:04:48;;;;;;;11.18;9.98;;;;;;;12.96;100.00;98614.63;5052273;28;20265;-62
2023/05/09 03:07:14;;;;;;;10.52;9.52;;;;;;;12.87;100.00;98586.72;5069531;28;20566;-62
2023/05/09 03:09:39;;;;;;;10.85;9.75;;;;;;;12.91;100.00;98616.72;5069812;28;20192;-62
2023/05/09 03:12:05;;;;;;;11.07;9.98;;;;;;;12.58;100.00;98555.16;5069501;28;20185;-62
2023/05/09 03:14:30;;;;;;;11.35;10.25;;;;;;;12.68;100.00;98583.84;5069684;28;20192;-62
2023/05/09 03:16:56;;;;;;;11.57;9.18;;;;;;;12.98;100.00;98628.34;5069616;28;20663;-62
2023/05/09 03:19:21;;;;;;;10.68;9.63;;;;;;;12.99;100.00;98632.56;5069657;28;20181;-62
2023/05/09 03:21:47;;;;;;;13.32;9.93;;;;;;;12.97;100.00;98650.06;5069545;28;20585;-62
2023/05/09 03:24:12;;;;;;;10.25;9.25;;;;;;;12.42;100.00;98564.19;5069620;28;20676;-62
2023/05/09 03:26:38;;;;;;;11.52;10.43;;;;;;;12.37;100.00;98569.69;5069488;28;20565;-62
2023/05/09 03:29:03;;;;;;;11.65;10.55;;;;;;;12.68;100.00;98627.97;5069459;28;20219;-62
2023/05/09 03:31:29;;;;;;;12.77;10.93;;;;;;;12.52;100.00;98612.69;5069472;28;20181;-62
2023/05/09 03:33:54;;;;;;;11.30;10.20;;;;;;;12.49;100.00;98570.56;5069453;28;20185;-61
2023/05/09 03:36:20;;;;;;;11.38;10.18;;;;;;;12.83;100.00;98629.47;5069746;28;20185;-62
2023/05/09 03:38:45;;;;;;;10.98;9.95;;;;;;;12.85;100.00;98631.00;5069384;28;20291;-62
2023/05/09 03:41:12;;;;;;;11.88;10.70;;;;;;;12.72;100.00;98613.84;5069409;28;20177;-62
2023/05/09 03:43:38;;;;;;;11.95;10.15;;;;;;;12.55;100.00;98589.09;5056531;28;20243;-62
2023/05/09 03:46:03;;;;;;;10.70;9.60;;;;;;;12.54;100.00;98590.03;5029256;28;20190;-62
2023/05/09 03:48:29;;;;;;;11.45;10.30;;;;;;;13.00;100.00;98673.22;5029209;28;20224;-62
2023/05/09 03:50:54;;;;;;;11.77;10.57;;;;;;;13.00;100.00;98668.03;5029346;28;20250;-62
2023/05/09 03:53:20;;;;;;;13.63;10.95;;;;;;;12.47;100.00;98588.00;5029339;28;20305;-62
2023/05/09 03:55:45;;;;;;;13.30;10.05;;;;;;;13.02;100.00;98679.94;5029365;28;20206;-62
2023/05/09 03:58:11;;;;;;;15.68;10.88;;;;;;;12.83;100.00;98634.66;5029189;28;20217;-63
2023/05/09 04:00:36;;;;;;;16.05;12.13;;;;;;;12.67;100.00;98589.97;5029379;28;20186;-62
2023/05/09 04:03:03;;;;;;;14.27;11.05;;;;;;;13.02;100.00;98659.16;5029215;28;20182;-62
2023/05/09 04:05:28;;;;;;;11.98;10.70;;;;;;;13.19;100.00;98673.50;5029228;28;20220;-62
2023/05/09 04:07:54;;;;;;;14.32;11.25;;;;;;;12.92;100.00;98641.75;5029228;28;20715;-62
2023/05/09 04:10:19;;;;;;;11.98;10.63;;;;;;;12.67;100.00;98614.16;5029116;28;20274;-62
2023/05/09 04:12:45;;;;;;;16.48;11.65;;;;;;;12.94;100.00;98669.25;5029209;28;20193;-62
2023/05/09 04:15:10;;;;;;;12.55;11.05;;;;;;;12.48;100.00;98602.66;5029137;28;20190;-62
2023/05/09 04:17:36;;;;;;;13.07;11.70;;;;;;;12.43;100.00;98604.75;5043785;28;20194;-62
2023/05/09 04:20:02;;;;;;;13.52;12.13;;;;;;;12.26;100.00;98582.63;5049061;28;20225;-62
2023/05/09 04:22:27;;;;;;;14.70;12.75;;;;;;;12.47;100.00;98629.53;5049042;28;20712;-62
2023/05/09 04:24:53;;;;;;;14.32;12.55;;;;;;;12.45;100.00;98628.81;5049020;28;20182;-62
2023/05/09 04:27:18;;;;;;;15.40;12.13;;;;;;;12.62;100.00;98649.19;5048908;28;20236;-62
2023/05/09 04:29:43;;;;;;;15.75;12.40;;;;;;;12.93;100.00;98667.59;5048956;28;20267;-62
2023/05/09 04:32:09;;;;;;;12.93;11.65;;;;;;;12.86;100.00;98682.00;5048914;28;20178;-62
2023/05/09 04:34:34;;;;;;;13.73;12.30;;;;;;;12.64;100.00;98642.13;5049577;28;20178;-62
2023/05/09 04:37:00;;;;;;;15.68;13.13;;;;;;;12.79;100.00;98683.38;5052660;28;20272;-62
2023/05/09 04:39:25;;;;;;;18.90;13.05;;;;;;;12.28;100.00;98587.69;5052658;28;20210;-62
2023/05/09 04:41:51;;;;;;;14.98;13.38;;;;;;;12.78;100.00;98665.31;5054108;28;20671;-62
2023/05/09 04:44:17;;;;;;;18.50;12.90;;;;;;;12.59;100.00;98621.69;5054985;28;20170;-62
2023/05/09 04:46:42;;;;;;;15.57;13.75;;;;;;;12.70;100.00;98672.81;5054659;28;20174;-62
2023/05/09 04:49:08;;;;;;;18.23;15.52;;;;;;;12.47;100.00;98625.19;5054534;28;20208;-62
2023/05/09 04:51:33;;;;;;;18.38;15.38;;;;;;;12.86;100.00;98686.34;5054812;28;20231;-62
2023/05/09 04:53:58;;;;;;;18.10;14.98;;;;;;;12.69;100.00;98653.00;5054472;28;20265;-61
2023/05/09 04:56:24;;;;;;;18.70;14.93;;;;;;;12.83;100.00;98664.03;5054687;28;20189;-62
2023/05/09 04:58:50;;;;;;;18.75;15.43;;;;;;;12.77;100.00;98655.88;5054718;28;20225;-62
2023/05/09 05:01:15;;;;;;;18.58;14.52;;;;;;;12.64;100.00;98647.31;5054727;28;20198;-62
2023/05/09 05:03:41;;;;;;;18.85;15.45;;;;;;;12.68;100.00;98664.31;5054619;28;20181;-62
2023/05/09 05:06:07;;;;;;;19.83;15.75;;;;;;;12.74;100.00;98682.06;5054545;28;20256;-62
2023/05/09 05:08:32;;;;;;;22.77;17.08;;;;;;;12.59;100.00;98659.78;5054408;28;20247;-62
2023/05/09 05:10:58;;;;;;;25.33;17.98;;;;;;;12.60;100.00;98651.91;5054142;28;20178;-62
2023/05/09 05:13:23;;;;;;;22.38;18.15;;;;;;;12.49;100.00;98648.44;5054371;28;20176;-62
2023/05/09 05:15:49;;;;;;;28.77;18.25;;;;;;;12.35;100.00;98620.03;5052134;28;20194;-62
2023/05/09 05:18:14;;;;;;;23.85;18.67;;;;;;;12.40;100.00;98629.16;5012188;28;20640;-62
2023/05/09 05:20:41;;;;;;;20.52;17.02;;;;;;;12.78;100.00;98686.09;5012225;28;20195;-62
2023/05/09 05:23:07;;;;;;;24.60;17.45;;;;;;;12.55;100.00;98654.00;5012097;28;20233;-63
2023/05/09 05:25:32;;;;;;;25.92;18.15;;;;;;;12.32;100.00;98631.47;5012084;28;20193;-62
2023/05/09 05:27:58;;;;;;;23.35;18.23;;;;;;;12.46;100.00;98661.63;5012001;28;20207;-63
2023/05/09 05:30:23;;;;;;;24.30;18.45;;;;;;;12.38;100.00;98645.78;5011895;28;20190;-62
2023/05/09 05:32:48;;;;;;;22.10;15.68;;;;;;;12.27;100.00;98614.59;5011942;28;20194;-64
2023/05/09 05:35:14;;;;;;;21.52;15.38;;;;;;;12.82;100.00;98692.69;5011901;28;20747;-63
2023/05/09 05:37:40;;;;;;;22.27;15.07;;;;;;;12.77;100.00;98695.63;5011994;28;20190;-63
2023/05/09 05:40:06;;;;;;;20.08;14.90;;;;;;;12.68;100.00;98688.53;5011796;28;20226;-62
2023/05/09 05:42:32;;;;;;;21.33;14.05;;;;;;;12.38;100.00;98663.94;4972600;28;20184;-62
2023/05/09 05:45:03;;;;;;;19.00;13.95;;;;;;;12.50;100.00;98694.22;4972720;28;20596;-62
2023/05/09 05:47:31;;;;;;;19.50;14.57;;;;;;;12.03;100.00;98632.72;4986802;28;20226;-62
2023/05/09 05:49:57;;;;;;;16.63;14.82;;;;;;;11.82;100.00;98628.22;5007692;28;20191;-62
2023/05/09 05:52:23;;;;;;;20.67;13.68;;;;;;;11.87;100.00;98618.34;5011617;28;20633;-62
2023/05/09 05:54:48;;;;;;;16.88;13.85;;;;;;;12.51;100.00;98724.41;5011615;28;20210;-62
2023/05/09 05:57:14;;;;;;;18.52;13.75;;;;;;;12.14;100.00;98626.78;5011371;28;20299;-62
2023/05/09 05:59:42;;;;;;;19.77;13.18;;;;;;;12.44;100.00;98695.47;5011502;28;20210;-62
2023/05/09 06:02:07;;;;;;;16.23;13.85;;;;;;;12.18;100.00;98659.34;5011614;28;20241;-62
2023/05/09 06:04:33;;;;;;;18.10;13.98;;;;;;;12.42;100.00;98699.94;5011401;28;20596;-62
2023/05/09 06:06:58;;;;;;;19.38;13.85;;;;;;;12.20;100.00;98696.38;5011346;28;20198;-62
2023/05/09 06:09:23;;;;;;;20.98;14.90;;;;;;;12.08;100.00;98651.38;5027284;28;20191;-62
2023/05/09 06:11:49;;;;;;;15.90;13.73;;;;;;;12.32;100.00;98713.69;5031000;28;20186;-62
2023/05/09 06:14:16;;;;;;;18.95;14.02;;;;;;;12.19;100.00;98681.78;5030883;28;20199;-62
2023/05/09 06:16:41;;;;;;;16.83;13.25;;;;;;;12.04;100.00;98662.94;5010977;28;20210;-62
2023/05/09 06:19:06;;;;;;;19.08;14.93;;;;;;;12.12;100.00;98680.53;5016925;28;20538;-62
2023/05/09 06:21:33;;;;;;;22.92;14.02;;;;;;;11.93;100.00;98643.84;5050787;28;20190;-62
2023/05/09 06:24:02;;;;;;;19.38;14.80;;;;;;;12.06;100.00;98660.19;5050746;28;20178;-61
2023/05/09 06:26:28;;;;;;;18.38;13.98;;;;;;;11.94;100.00;98632.53;5050820;28;20192;-62
2023/05/09 06:28:53;;;;;;;16.15;12.80;;;;;;;12.01;100.00;98628.59;5050530;28;20213;-62
2023/05/09 06:31:19;;;;;;;15.90;13.30;;;;;;;12.01;100.00;98629.41;5050598;28;20188;-62
2023/05/09 06:33:44;;;;;;;17.13;13.43;;;;;;;12.36;100.00;98687.41;5050420;28;20178;-62
2023/05/09 06:36:10;;;;;;;18.95;14.38;;;;;;;12.33;100.00;98698.00;5050415;28;20644;-62
2023/05/09 06:38:36;;;;;;;21.10;15.20;;;;;;;12.43;100.00;98721.53;5050434;28;20272;-62
2023/05/09 06:41:01;;;;;;;22.83;14.23;;;;;;;12.03;100.00;98660.44;5050254;28;20555;-62
2023/05/09 06:43:26;;;;;;;21.10;14.82;;;;;;;12.44;100.00;98708.44;5050217;28;20182;-62
2023/05/09 06:45:52;;;;;;;16.65;13.07;;;;;;;12.09;100.00;98649.63;5050208;28;20517;-61
2023/05/09 06:48:18;;;;;;;19.27;13.65;;;;;;;12.49;100.00;98708.13;5050141;28;20217;-62
2023/05/09 06:50:43;;;;;;;23.48;15.15;;;;;;;12.36;100.00;98700.38;5050174;28;20744;-61
2023/05/09 06:53:08;;;;;;;19.08;14.48;;;;;;;12.16;100.00;98656.88;5050570;28;20567;-62
2023/05/09 06:55:34;;;;;;;21.45;13.73;;;;;;;12.43;100.00;98705.97;5049921;28;20186;-62
2023/05/09 06:57:59;;;;;;;20.13;13.70;;;;;;;12.35;100.00;98706.50;5049547;28;20221;-61
2023/05/09 07:00:25;;;;;;;19.85;14.52;;;;;;;11.87;100.00;98639.09;5050072;28;20198;-61
2023/05/09 07:02:51;;;;;;;20.33;15.00;;;;;;;12.16;100.00;98671.59;5049917;28;20284;-61
2023/05/09 07:05:16;;;;;;;23.20;15.00;;;;;;;12.13;100.00;98671.81;5049939;28;20186;-62
2023/05/09 07:07:41;;;;;;;23.55;15.73;;;;;;;12.34;100.00;98704.00;5069560;28;20845;-62
2023/05/09 07:10:08;;;;;;;22.05;15.50;;;;;;;12.30;100.00;98677.47;5069748;28;20181;-62
2023/05/09 07:12:33;;;;;;;24.92;16.25;;;;;;;11.93;100.00;98628.28;5069801;28;20555;-62
2023/05/09 07:14:59;;;;;;;26.77;16.85;;;;;;;12.10;100.00;98649.53;5069696;28;20196;-62
2023/05/09 07:17:24;;;;;;;21.75;15.73;;;;;;;12.33;100.00;98711.00;5069737;28;20188;-62
2023/05/09 07:19:50;;;;;;;22.63;15.45;;;;;;;12.51;100.00;98704.50;5069662;28;20254;-62
2023/05/09 07:22:16;;;;;;;20.02;14.45;;;;;;;12.25;100.00;98638.03;5069536;28;20211;-62
2023/05/09 07:24:43;;;;;;;25.50;15.57;;;;;;;12.22;100.00;98646.06;5069619;28;20250;-62
2023/05/09 07:27:08;;;;;;;21.30;14.52;;;;;;;12.25;100.00;98639.81;5084399;28;20192;-62
2023/05/09 07:29:34;;;;;;;19.25;14.02;;;;;;;12.74;100.00;98714.06;5089786;28;20728;-62
2023/05/09 07:32:00;;;;;;;19.55;14.07;;;;;;;12.38;100.00;98645.78;5089716;28;20184;-62
2023/05/09 07:34:26;;;;;;;22.10;15.82;;;;;;;12.54;100.00;98698.25;5089708;28;20261;-62
2023/05/09 07:36:51;;;;;;;21.92;15.68;;;;;;;12.26;100.00;98637.09;5089647;28;20218;-62
2023/05/09 07:39:16;;;;;;;24.17;15.63;;;;;;;12.73;100.00;98727.13;5061112;28;20686;-62
2023/05/09 07:41:42;;;;;;;20.58;15.70;;;;;;;12.74;100.00;98716.66;5052113;28;20178;-62
2023/05/09 07:44:08;;;;;;;26.42;17.70;;;;;;;12.67;100.00;98705.03;5051512;28;20396;-62
2023/05/09 07:46:36;;;;;;;26.17;18.42;;;;;;;12.40;100.00;98668.09;5051774;28;20260;-62
2023/05/09 07:49:02;;;;;;;22.65;18.88;;;;;;;12.58;100.00;98679.75;5051669;28;20287;-62
2023/05/09 07:51:27;;;;;;;20.00;14.30;;;;;;;13.00;100.00;98738.16;5052014;28;20663;-62
2023/05/09 07:53:55;;;;;;;22.33;19.33;;;;;;;12.60;100.00;98697.81;5051417;28;20174;-62
2023/05/09 07:56:21;;;;;;;27.00;17.67;;;;;;;12.79;100.00;98740.50;5051678;28;20177;-62
2023/05/09 07:58:47;;;;;;;30.90;20.42;;;;;;;12.21;100.00;98653.94;5051728;28;20204;-62
2023/05/09 08:01:12;;;;;;;22.92;16.05;;;;;;;12.21;100.00;98677.28;5051694;28;20644;-62
2023/05/09 08:03:37;;;;;;;20.52;15.23;;;;;;;12.22;100.00;98677.19;5051632;28;20222;-62
2023/05/09 08:06:03;;;;;;;22.58;16.42;;;;;;;12.16;100.00;98674.19;5051580;28;20180;-62
2023/05/09 08:08:28;;;;;;;21.77;14.82;;;;;;;12.09;100.00;98665.19;5051487;28;20201;-62
2023/05/09 08:10:55;;;;;;;20.75;16.15;;;;;;;12.08;100.00;98663.53;5054470;28;20174;-62
2023/05/09 08:13:21;;;;;;;19.42;15.32;;;;;;;12.52;100.00;98741.63;5053050;28;20182;-62
2023/05/09 08:15:47;;;;;;;24.17;16.13;;;;;;;11.91;100.00;98651.72;5053073;28;20603;-62
2023/05/09 08:18:12;;;;;;;25.75;15.98;;;;;;;12.40;100.00;98732.13;5053100;28;20185;-62
2023/05/09 08:20:38;;;;;;;22.48;16.65;;;;;;;12.58;100.00;98747.22;5053045;28;20224;-62
2023/05/09 08:23:03;;;;;;;23.45;16.73;;;;;;;12.36;100.00;98700.38;5013082;28;20281;-62
2023/05/09 08:25:28;;;;;;;23.65;15.82;;;;;;;12.09;100.00;98658.22;5013217;28;20258;-62
2023/05/09 08:27:54;;;;;;;21.48;17.08;;;;;;;12.19;100.00;98672.19;5013304;28;20210;-62
2023/05/09 08:30:19;;;;;;;24.80;15.75;;;;;;;12.70;100.00;98724.75;5013177;28;20214;-62
2023/05/09 08:32:45;;;;;;;23.88;16.55;;;;;;;12.26;100.00;98695.97;5013003;28;20187;-62
2023/05/09 08:35:11;;;;;;;22.33;15.75;;;;;;;12.35;100.00;98718.63;5013046;28;20262;-62
2023/05/09 08:37:36;;;;;;;23.70;16.63;;;;;;;12.45;100.00;98743.00;5012911;28;20199;-62
2023/05/09 08:40:08;;;;;;;29.58;20.88;;;;;;;12.41;100.00;98713.84;5012910;28;20197;-62
2023/05/09 08:42:36;;;;;;;35.13;25.10;;;;;;;12.31;100.00;98718.03;5013056;28;20187;-62
2023/05/09 08:45:15;;;;;;;20.77;14.52;;;;;;;11.93;100.00;98654.22;5028530;28;20657;-62
2023/05/09 08:47:41;;;;;;;20.38;15.23;;;;;;;12.37;100.00;98737.56;5032470;28;20231;-62
2023/05/09 08:50:10;;;;;;;20.27;15.23;;;;;;;11.89;100.00;98666.56;5032543;28;20768;-62
2023/05/09 08:52:36;;;;;;;30.20;17.45;;;;;;;11.82;100.00;98643.78;5032610;28;20700;-62
2023/05/09 08:55:06;;;;;;;25.00;16.88;;;;;;;11.92;100.00;98657.75;5052428;28;20225;-62
2023/05/09 08:57:34;;;;;;;63.72;35.38;;;;;;;11.83;100.00;98653.19;5054754;28;20177;-61
2023/05/09 08:59:59;;;;;;;29.23;17.48;;;;;;;12.01;100.00;98664.91;5054887;28;20197;-62
2023/05/09 09:02:25;;;;;;;26.90;18.10;;;;;;;12.12;100.00;98688.31;5054713;28;20170;-62
2023/05/09 09:04:50;;;;;;;15.13;11.00;;;;;;;12.23;100.00;98716.91;5032160;28;20719;-62
2023/05/09 09:07:17;;;;;;;24.23;12.93;;;;;;;12.41;100.00;98736.38;5032169;28;20680;-62
2023/05/09 09:09:47;;;;;;;55.88;30.80;;;;;;;12.55;100.00;98744.03;5032183;28;20183;-61
2023/05/09 09:12:15;;;;;;;25.45;14.77;;;;;;;11.96;100.00;98656.63;5032192;28;20185;-62
2023/05/09 09:14:45;;;;;;;20.60;10.82;;;;;;;12.45;100.00;98748.19;5032372;28;20253;-62
2023/05/09 09:17:14;;;;;;;24.70;18.52;;;;;;;11.90;100.00;98652.69;5032280;28;20595;-62
2023/05/09 09:19:42;;;;;;;19.88;12.75;;;;;;;12.09;100.00;98672.97;5032000;28;20270;-62
2023/05/09 09:22:12;;;;;;;23.67;15.77;;;;;;;12.38;100.00;98744.38;5031885;28;20210;-62
2023/05/09 09:24:37;;;;;;;21.20;14.55;;;;;;;12.50;100.00;98740.94;5031950;28;20225;-62
2023/05/09 09:27:06;;;;;;;17.55;12.77;;;;;;;12.12;100.00;98688.31;5031778;28;20187;-62
2023/05/09 09:29:32;;;;;;;22.10;13.43;;;;;;;12.05;100.00;98698.28;5031876;28;20190;-62
2023/05/09 09:32:01;;;;;;;15.57;12.38;;;;;;;12.40;100.00;98740.75;5031847;28;20564;-61
2023/05/09 09:34:27;;;;;;;24.38;17.52;;;;;;;12.42;100.00;98740.66;5031791;28;20207;-62
2023/05/09 09:36:52;;;;;;;17.75;15.02;;;;;;;12.25;100.00;98702.09;5052358;28;20261;-61
2023/05/09 09:39:18;;;;;;;21.13;15.30;;;;;;;12.05;100.00;98679.28;5054003;28;20671;-61
2023/05/09 09:41:43;;;;;;;15.18;12.98;;;;;;;12.33;100.00;98704.97;5031415;28;20278;-61
2023/05/09 09:44:13;;;;;;;18.75;14.88;;;;;;;12.08;100.00;98661.75;5031571;28;20233;-61
2023/05/09 09:46:45;;;;;;;81.85;36.00;;;;;;;12.50;100.00;98756.50;5031482;28;20668;-62
2023/05/09 09:49:15;;;;;;;35.08;20.17;;;;;;;12.41;100.00;98726.84;5031397;28;20209;-61
2023/05/09 09:51:41;;;;;;;41.70;24.08;;;;;;;12.40;100.00;98709.59;5051175;28;20194;-61
2023/05/09 09:54:08;;;;;;;24.80;17.13;;;;;;;12.38;100.00;98702.88;5051323;28;20274;-61
2023/05/09 09:56:45;;;;;;;24.05;17.30;;;;;;;12.28;100.00;98688.88;5051240;28;20193;-61
2023/05/09 09:59:13;;;;;;;18.98;15.60;;;;;;;11.95;100.00;98648.00;5051118;28;20201;-61
2023/05/09 10:01:58;;;;;;;22.23;16.33;;;;;;;12.24;100.00;98698.66;5030969;28;20178;-61
2023/05/09 10:04:24;;;;;;;23.15;17.65;;;;;;;12.44;100.00;98734.38;5031228;28;20190;-61
2023/05/09 10:06:53;;;;;;;27.05;18.10;;;;;;;12.48;100.00;98741.03;5031086;28;20179;-61
2023/05/09 10:09:20;;;;;;;26.23;17.80;;;;;;;12.25;100.00;98699.50;5031062;28;20202;-61
2023/05/09 10:11:49;;;;;;;27.77;19.10;;;;;;;12.56;100.00;98738.75;5031014;28;20617;-61
2023/05/09 10:14:15;;;;;;;27.20;17.63;;;;;;;12.64;100.00;98740.75;5030910;28;20224;-61
2023/05/09 10:16:42;;;;;;;21.23;17.65;;;;;;;12.61;100.00;98731.41;5030910;28;20664;-61
2023/05/09 10:19:09;;;;;;;27.08;19.63;;;;;;;12.61;100.00;98738.41;5030899;28;20198;-61
2023/05/09 10:21:36;;;;;;;22.80;16.88;;;;;;;12.37;100.00;98717.59;5029789;28;20178;-61
2023/05/09 10:24:03;;;;;;;18.65;14.25;;;;;;;12.43;100.00;98737.13;5011090;28;20179;-61
2023/05/09 10:26:33;;;;;;;26.23;17.33;;;;;;;12.23;100.00;98698.75;5010976;28;20684;-61
2023/05/09 10:29:03;;;;;;;48.55;25.92;;;;;;;12.03;100.00;98691.56;5010959;28;20211;-61
2023/05/09 10:31:35;;;;;;;23.38;17.00;;;;;;;12.15;100.00;98708.84;5010926;28;20261;-61
2023/05/09 10:34:03;;;;;;;25.42;16.40;;;;;;;12.37;100.00;98756.53;4990748;28;20196;-61
2023/05/09 10:36:30;;;;;;;22.13;17.02;;;;;;;11.98;100.00;98662.50;4971747;28;20247;-61
2023/05/09 10:38:55;;;;;;;22.98;16.92;;;;;;;12.46;100.00;98758.47;4980427;28;20675;-61
2023/05/09 10:41:21;;;;;;;23.38;15.63;;;;;;;12.49;100.00;98773.00;4991189;28;20183;-61
2023/05/09 10:43:47;;;;;;;37.55;21.50;;;;;;;12.43;100.00;98744.91;4991128;28;20206;-61
2023/05/09 10:46:13;;;;;;;38.50;23.48;;;;;;;12.22;100.00;98716.09;4990991;28;20678;-62
2023/05/09 10:48:40;;;;;;;22.13;16.98;;;;;;;12.57;100.00;98744.75;4990871;28;20266;-61
2023/05/09 10:51:07;;;;;;;75.40;39.17;;;;;;;12.46;100.00;98726.50;4990885;28;20184;-61
2023/05/09 10:53:44;;;;;;;32.78;21.70;;;;;;;12.55;100.00;98746.63;4990914;28;20184;-61
2023/05/09 10:56:22;;;;;;;39.88;23.55;;;;;;;12.48;100.00;98745.41;4990834;28;20195;-61
2023/05/09 10:58:47;;;;;;;45.47;26.63;;;;;;;11.99;100.00;98665.00;4990682;28;20259;-61
2023/05/09 11:01:13;;;;;;;60.92;35.45;;;;;;;12.40;100.00;98743.34;4990964;28;20250;-61
2023/05/09 11:03:57;;;;;;;25.17;18.73;;;;;;;12.44;100.00;98746.56;4971070;28;20192;-61
2023/05/09 11:06:44;;;;;;;26.48;19.05;;;;;;;12.51;100.00;98752.97;4974079;28;20737;-61
2023/05/09 11:09:33;;;;;;;22.58;17.10;;;;;;;12.56;100.00;98751.72;5009954;28;20327;-61
2023/05/09 11:12:20;;;;;;;22.52;16.70;;;;;;;12.03;100.00;98684.59;5024832;28;20761;-61